Time;durP1;ratioP1;P1;durP2;ratioP2;P2;SDS_P1;SDS_P2;PMS_P1;PMS_P2;Temp;Humidity;BMP_temperature;BMP_pressure;BME280_temperature;BME280_humidity;BME280_pressure;Samples;Min_cycle;Max_cycle;Signal;HPM_P1;HPM_P2
2022/06/08 04:26:35;;;;;;;8.07;6.97;;;;;;;16.64;100.00;99708.22;5568599;31;495640;-88
2022/06/08 04:29:39;;;;;;;7.95;7.15;;;;;;;16.56;100.00;99703.53;5601439;26;33629;-88
2022/06/08 04:32:42;;;;;;;8.77;7.35;;;;;;;16.59;100.00;99700.56;5565509;32;33480;-89
2022/06/08 04:35:46;;;;;;;7.65;6.72;;;;;;;16.61;100.00;99705.81;5565327;32;34458;-88
2022/06/08 04:38:49;;;;;;;8.10;6.72;;;;;;;16.68;100.00;99702.47;5565377;32;33594;-88
2022/06/08 04:41:52;;;;;;;9.75;6.43;;;;;;;16.85;100.00;99710.87;5567483;32;33356;-88
2022/06/08 04:44:54;;;;;;;11.65;6.45;;;;;;;16.95;100.00;99717.13;5568242;32;34325;-88
2022/06/08 04:47:57;;;;;;;8.70;6.85;;;;;;;17.07;100.00;99717.91;5572836;32;33740;-88
2022/06/08 04:51:07;;;;;;;7.45;6.30;;;;;;;17.02;100.00;99713.91;5565027;32;33815;-88
2022/06/08 04:54:11;;;;;;;7.40;6.70;;;;;;;17.11;100.00;99705.09;5564343;32;33568;-87
2022/06/08 04:57:14;;;;;;;7.32;6.32;;;;;;;17.36;100.00;99701.06;5564353;32;33830;-87
2022/06/08 05:00:21;;;;;;;6.68;5.95;;;;;;;17.35;100.00;99706.59;5565650;32;33744;-87
2022/06/08 05:03:25;;;;;;;6.87;6.25;;;;;;;17.29;100.00;99699.94;5565288;32;33590;-88
2022/06/08 05:06:27;;;;;;;8.32;6.85;;;;;;;17.34;100.00;99703.03;5575780;32;33875;-87
2022/06/08 05:09:30;;;;;;;6.72;6.12;;;;;;;17.46;100.00;99702.94;5577936;32;34105;-88
2022/06/08 05:12:42;;;;;;;6.05;5.60;;;;;;;17.48;100.00;99706.31;5564169;32;33293;-86
2022/06/08 05:15:46;;;;;;;5.97;5.47;;;;;;;17.62;100.00;99708.62;5563859;32;35099;-91
2022/06/08 05:18:49;;;;;;;6.45;5.85;;;;;;;17.76;100.00;99715.41;5562471;32;34036;-92
2022/06/08 05:21:53;;;;;;;6.87;6.03;;;;;;;18.02;100.00;99728.28;5565753;32;34983;-91
2022/06/08 05:24:57;;;;;;;7.05;6.35;;;;;;;18.26;100.00;99728.88;5560888;32;33440;-89
2022/06/08 05:28:01;;;;;;;6.75;5.90;;;;;;;18.15;100.00;99733.38;5550710;32;33629;-88
2022/06/08 05:31:05;;;;;;;6.60;5.97;;;;;;;18.26;100.00;99739.63;5550036;32;34301;-88
2022/06/08 05:34:08;;;;;;;6.55;5.95;;;;;;;18.13;100.00;99726.47;5550726;32;33598;-88
2022/06/08 05:37:12;;;;;;;8.68;6.00;;;;;;;18.28;100.00;99730.44;5552171;32;34283;-88
2022/06/08 05:40:14;;;;;;;7.75;6.25;;;;;;;18.57;100.00;99718.78;5557746;32;34942;-88
2022/06/08 05:43:18;;;;;;;6.53;5.80;;;;;;;19.14;100.00;99719.78;5553639;32;33701;-88
2022/06/08 05:46:22;;;;;;;6.68;6.07;;;;;;;19.28;100.00;99721.13;5553074;32;32754;-88
2022/06/08 05:49:27;;;;;;;6.50;5.90;;;;;;;19.50;100.00;99716.31;5550540;32;34672;-89
2022/06/08 05:52:30;;;;;;;6.12;5.45;;;;;;;20.95;96.11;99718.94;5551125;32;33660;-89
2022/06/08 05:55:36;;;;;;;7.30;5.55;;;;;;;23.08;86.59;99721.38;5547974;32;34130;-81
2022/06/08 05:58:39;;;;;;;6.18;5.05;;;;;;;24.36;76.89;99724.72;5547049;32;33255;-86
2022/06/08 06:01:43;;;;;;;9.02;5.37;;;;;;;23.42;82.02;99726.50;5551320;32;33845;-82
2022/06/08 06:04:46;;;;;;;9.73;5.57;;;;;;;23.21;82.10;99739.75;5553964;32;34772;-81
2022/06/08 06:07:49;;;;;;;7.03;5.37;;;;;;;23.44;82.89;99750.69;5553289;32;34689;-83
2022/06/08 06:10:53;;;;;;;7.70;5.43;;;;;;;22.97;82.88;99763.16;5550729;32;34091;-84
2022/06/08 06:13:57;;;;;;;5.95;5.40;;;;;;;21.90;87.90;99772.94;5549422;32;35212;-83
2022/06/08 06:17:01;;;;;;;5.90;5.00;;;;;;;21.99;90.46;99758.44;5547170;32;33799;-86
2022/06/08 06:20:05;;;;;;;7.20;4.75;;;;;;;22.98;85.48;99756.75;5548511;32;33874;-83
2022/06/08 06:23:09;;;;;;;4.90;4.20;;;;;;;24.85;72.92;99755.09;5551308;32;33484;-83
2022/06/08 06:26:12;;;;;;;5.60;4.50;;;;;;;27.42;63.88;99746.78;5552457;32;34988;-85
2022/06/08 06:29:15;;;;;;;5.97;4.03;;;;;;;28.15;57.10;99748.06;5548930;32;35112;-85
2022/06/08 06:32:28;;;;;;;8.30;4.35;;;;;;;26.27;65.68;99754.16;5549041;32;33651;-83
2022/06/08 06:35:31;;;;;;;4.62;3.97;;;;;;;28.60;58.07;99743.91;5550872;32;34127;-82
2022/06/08 06:38:40;;;;;;;12.10;4.07;;;;;;;28.08;58.82;99750.78;5545156;32;34655;-82
2022/06/08 06:41:44;;;;;;;4.82;4.40;;;;;;;26.97;62.22;99747.19;5549746;32;34098;-83
2022/06/08 06:44:47;;;;;;;5.05;4.65;;;;;;;25.77;65.36;99737.75;5551333;32;33716;-82
2022/06/08 06:47:52;;;;;;;4.97;4.53;;;;;;;24.38;72.24;99727.25;5551253;32;33995;-84
2022/06/08 06:50:55;;;;;;;5.20;4.80;;;;;;;23.79;75.58;99723.25;5548320;32;33582;-83
2022/06/08 06:53:57;;;;;;;5.22;4.70;;;;;;;24.06;73.11;99729.16;5548608;32;35187;-84
2022/06/08 06:57:00;;;;;;;7.18;4.60;;;;;;;24.17;73.24;99730.62;5549167;32;34773;-84
2022/06/08 07:00:04;;;;;;;5.60;4.40;;;;;;;24.61;72.93;99732.63;5549254;32;33722;-84
2022/06/08 07:03:08;;;;;;;4.65;4.25;;;;;;;25.16;71.39;99720.72;5539390;32;34067;-84
2022/06/08 07:06:12;;;;;;;4.95;4.47;;;;;;;25.34;69.67;99712.16;5541454;32;33923;-87
2022/06/08 07:09:15;;;;;;;6.12;5.18;;;;;;;25.98;68.74;99715.19;5546095;32;34166;-86
2022/06/08 07:12:19;;;;;;;5.35;4.95;;;;;;;26.35;64.94;99706.97;5533721;32;33726;-87
2022/06/08 07:15:23;;;;;;;6.78;4.95;;;;;;;25.74;71.26;99708.25;5548687;32;35203;-87
2022/06/08 07:18:27;;;;;;;5.80;4.90;;;;;;;25.35;69.71;99700.28;5549281;32;34416;-86
2022/06/08 07:21:30;;;;;;;7.37;4.70;;;;;;;25.18;68.63;99696.94;5549217;32;33909;-86
2022/06/08 07:24:33;;;;;;;5.15;4.65;;;;;;;25.18;66.50;99696.94;5547728;32;34068;-87
2022/06/08 07:27:36;;;;;;;5.03;4.40;;;;;;;25.15;65.19;99684.56;5537880;32;32424;-87
2022/06/08 07:30:39;;;;;;;6.05;4.75;;;;;;;26.18;63.33;99690.06;5549642;32;33664;-87
2022/06/08 07:33:42;;;;;;;5.68;5.18;;;;;;;26.35;61.54;99693.38;5549651;32;33890;-86
2022/06/08 07:36:45;;;;;;;5.05;4.60;;;;;;;25.77;64.51;99692.41;5546191;32;33629;-86
2022/06/08 07:39:48;;;;;;;6.05;4.72;;;;;;;25.57;63.62;99692.19;5549267;32;33825;-88
2022/06/08 07:42:51;;;;;;;6.20;4.87;;;;;;;25.78;63.83;99690.53;5548930;32;34215;-88
2022/06/08 07:45:53;;;;;;;8.75;4.70;;;;;;;25.23;65.20;99694.50;5549434;32;32649;-88
2022/06/08 07:52:20;;;;;;;5.10;4.70;;;;;;;26.40;61.39;99693.63;5554134;32;34863;-89
2022/06/08 07:55:24;;;;;;;6.25;4.82;;;;;;;26.78;59.33;99687.81;5550295;32;33852;-88
2022/06/08 07:58:27;;;;;;;7.32;5.15;;;;;;;26.55;61.39;99689.97;5532566;32;34945;-88
2022/06/08 08:01:30;;;;;;;5.57;4.57;;;;;;;26.48;60.71;99685.31;5549856;32;33620;-88
2022/06/08 08:04:36;;;;;;;5.78;4.65;;;;;;;26.27;62.09;99683.50;5545441;32;33437;-89
2022/06/08 08:07:40;;;;;;;5.87;4.72;;;;;;;26.42;64.96;99677.12;5550227;32;34025;-88
2022/06/08 08:10:45;;;;;;;4.93;4.40;;;;;;;26.53;63.93;99682.00;5548781;32;33607;-87
2022/06/08 08:13:47;;;;;;;5.45;4.95;;;;;;;25.82;63.48;99678.25;5534405;32;34160;-88
2022/06/08 08:16:51;;;;;;;4.85;4.45;;;;;;;25.23;66.38;99671.94;5543320;32;34139;-88
2022/06/08 08:19:53;;;;;;;6.47;5.30;;;;;;;25.51;65.91;99679.38;5547168;32;36062;-88
2022/06/08 08:22:57;;;;;;;6.20;5.03;;;;;;;25.35;67.19;99667.72;5546521;32;34070;-87
2022/06/08 08:26:00;;;;;;;5.50;4.80;;;;;;;25.26;67.46;99672.41;5547440;32;34062;-86
2022/06/08 08:29:04;;;;;;;6.45;5.75;;;;;;;25.60;66.32;99680.13;5547532;32;34700;-86
2022/06/08 08:32:09;;;;;;;8.57;4.95;;;;;;;26.31;63.35;99684.78;5545585;32;34239;-87
2022/06/08 08:35:12;;;;;;;6.20;5.30;;;;;;;27.17;61.06;99674.63;5547229;32;34148;-86
2022/06/08 08:38:15;;;;;;;5.62;5.12;;;;;;;27.39;61.21;99674.50;5547700;32;33672;-87
2022/06/08 08:44:58;;;;;;;5.90;5.32;;;;;;;26.53;62.99;99682.00;5548893;32;33384;-87
2022/06/08 08:48:06;;;;;;;5.75;5.25;;;;;;;26.72;61.40;99679.63;5548755;32;33930;-91
2022/06/08 08:51:17;;;;;;;6.07;5.47;;;;;;;27.49;60.77;99676.03;5549812;32;33460;-92
2022/06/08 08:54:34;;;;;;;7.10;4.97;;;;;;;28.12;57.39;99672.16;5554347;32;34357;-89
2022/06/08 08:57:43;;;;;;;5.93;5.40;;;;;;;28.81;55.53;99680.06;5549183;32;33897;-88
2022/06/08 09:00:56;;;;;;;5.30;4.87;;;;;;;28.64;55.47;99674.22;5549243;32;34838;-88
2022/06/08 09:04:15;;;;;;;6.65;4.78;;;;;;;28.97;56.38;99667.03;5550383;32;33817;-87
2022/06/08 09:07:21;;;;;;;5.18;4.70;;;;;;;29.15;55.88;99658.13;5551812;32;33972;-88
2022/06/08 09:10:26;;;;;;;5.65;4.85;;;;;;;29.69;52.42;99649.66;5550717;32;34423;-88
2022/06/08 09:13:54;;;;;;;5.75;5.20;;;;;;;29.79;52.31;99658.22;5551442;32;34127;-89
2022/06/08 09:17:16;;;;;;;5.53;5.12;;;;;;;28.72;54.10;99657.66;5544314;32;33694;-90
2022/06/08 09:20:30;;;;;;;5.45;4.95;;;;;;;27.53;57.56;99660.94;5550942;32;33779;-89
2022/06/08 09:23:41;;;;;;;6.62;5.57;;;;;;;27.44;59.47;99663.84;5551448;32;35014;-90
2022/06/08 09:26:44;;;;;;;6.10;5.00;;;;;;;28.32;56.30;99663.16;5552079;32;34008;-90
2022/06/08 09:29:55;;;;;;;5.60;5.05;;;;;;;29.53;53.24;99668.28;5549606;32;33955;-88
2022/06/08 09:33:17;;;;;;;5.65;5.12;;;;;;;30.36;52.62;99668.31;5549133;32;32639;-92
2022/06/08 09:36:27;;;;;;;5.65;5.15;;;;;;;29.98;51.94;99667.31;5549516;32;32460;-87
2022/06/08 09:39:31;;;;;;;6.05;5.55;;;;;;;30.37;49.54;99660.94;5550047;32;32581;-88
2022/06/08 09:42:56;;;;;;;6.68;5.37;;;;;;;29.16;53.63;99654.38;5550719;32;33778;-87
2022/06/08 09:46:16;;;;;;;8.38;5.18;;;;;;;29.65;54.00;99645.69;5544674;32;33817;-88
2022/06/08 09:52:45;;;;;;;5.35;4.90;;;;;;;28.52;55.65;99633.94;5533539;32;34438;-87
2022/06/08 09:56:09;;;;;;;6.78;5.53;;;;;;;27.89;58.19;99624.34;5552667;32;34946;-88
2022/06/08 09:59:42;;;;;;;7.00;5.80;;;;;;;28.31;56.20;99624.12;5548970;32;34465;-87
2022/06/08 10:03:11;;;;;;;7.55;5.60;;;;;;;27.92;58.50;99609.47;5550476;32;32530;-92
2022/06/08 10:06:32;;;;;;;6.20;5.35;;;;;;;28.59;56.88;99608.53;5548390;32;32871;-88
2022/06/08 10:09:47;;;;;;;6.20;4.85;;;;;;;30.17;51.97;99606.44;5549158;32;33771;-87
2022/06/08 10:13:01;;;;;;;11.98;5.85;;;;;;;30.75;53.55;99588.78;5549370;32;33927;-86
2022/06/08 10:16:13;;;;;;;10.93;5.50;;;;;;;30.41;50.71;99587.47;5553803;32;34474;-88
2022/06/08 10:19:23;;;;;;;7.25;5.20;;;;;;;31.09;50.13;99582.03;5550081;32;34016;-87
2022/06/08 10:22:32;;;;;;;7.22;5.03;;;;;;;31.96;47.14;99585.38;5552145;32;34179;-87
2022/06/08 10:25:42;;;;;;;5.60;5.00;;;;;;;34.16;42.91;99578.34;5548952;32;34389;-87
2022/06/08 10:28:49;;;;;;;4.97;4.57;;;;;;;35.04;41.09;99585.81;5548598;32;34827;-88
2022/06/08 10:31:55;;;;;;;5.80;4.57;;;;;;;35.26;35.64;99575.88;5548334;32;33721;-87
2022/06/08 10:35:01;;;;;;;5.20;4.80;;;;;;;34.81;36.60;99560.25;5543228;32;34459;-87
2022/06/08 10:38:05;;;;;;;8.18;4.40;;;;;;;34.22;38.88;99560.84;5541729;32;33686;-88
2022/06/08 10:45:22;;;;;;;5.12;4.30;;;;;;;32.52;38.48;99549.31;5542603;32;33917;-88
2022/06/08 10:48:43;;;;;;;10.52;4.43;;;;;;;32.38;40.50;99543.25;5548055;32;34477;-88
2022/06/08 10:52:12;;;;;;;5.35;3.72;;;;;;;31.54;39.78;99539.66;5546356;32;34381;-89
2022/06/08 10:55:15;;;;;;;4.18;3.78;;;;;;;31.48;36.55;99522.28;5556409;32;33691;-90
2022/06/08 10:58:18;;;;;;;4.03;3.70;;;;;;;31.43;35.63;99535.84;5555576;32;33710;-91
2022/06/08 11:16:30;;;;;;;3.47;3.20;;;;;;;31.05;35.53;99516.78;5403124;26;20131;-90
2022/06/08 11:19:34;;;;;;;3.92;3.50;;;;;;;30.06;37.36;99518.56;5542292;32;34210;-91
2022/06/08 11:22:42;;;;;;;5.30;3.20;;;;;;;30.38;36.44;99523.91;5536844;32;35041;-91
2022/06/08 11:26:05;;;;;;;4.82;3.55;;;;;;;30.43;36.36;99514.19;5537971;32;34396;-91
2022/06/08 11:29:17;;;;;;;4.28;3.55;;;;;;;30.06;36.70;99507.63;5546581;32;34077;-91
2022/06/08 11:32:41;;;;;;;6.20;3.75;;;;;;;29.56;37.81;99509.38;5545836;32;34801;-91
2022/06/08 11:35:56;;;;;;;6.80;3.35;;;;;;;30.10;37.10;99494.38;5541976;32;34090;-91
2022/06/08 11:39:05;;;;;;;4.60;3.45;;;;;;;29.37;37.12;99493.94;5536398;32;34031;-91
2022/06/08 11:42:27;;;;;;;5.70;3.70;;;;;;;29.61;38.11;99495.03;5531356;32;33609;-90
2022/06/08 11:45:36;;;;;;;6.55;3.62;;;;;;;30.09;36.81;99487.25;5516560;32;32564;-91
2022/06/08 11:48:49;;;;;;;7.00;3.62;;;;;;;29.96;36.44;99490.94;5531165;32;34651;-90
2022/06/08 11:51:52;;;;;;;7.05;3.55;;;;;;;29.73;37.14;99481.47;5530674;32;34439;-91
2022/06/08 11:55:00;;;;;;;6.68;3.60;;;;;;;29.67;37.17;99491.41;5516485;32;32634;-91
2022/06/08 11:58:06;;;;;;;5.15;3.90;;;;;;;29.97;37.08;99484.41;5530810;32;34810;-91
2022/06/08 12:01:16;;;;;;;3.90;3.50;;;;;;;29.10;38.64;99488.69;5516760;32;33701;-90
2022/06/08 12:04:24;;;;;;;6.82;3.78;;;;;;;29.09;37.51;99479.66;5530891;32;34300;-90
2022/06/08 12:07:50;;;;;;;6.07;3.90;;;;;;;29.44;38.81;99486.53;5535089;32;34623;-91
2022/06/08 12:10:54;;;;;;;6.57;3.80;;;;;;;29.32;38.48;99481.78;5542616;32;33696;-90
2022/06/08 12:14:41;;;;;;;4.50;4.10;;;;;;;28.85;38.88;99475.81;5533224;32;34088;-90
2022/06/08 12:17:44;;;;;;;4.65;4.25;;;;;;;28.56;39.05;99478.06;5537808;32;33890;-91
2022/06/08 12:20:48;;;;;;;4.75;4.20;;;;;;;28.21;40.11;99471.84;5516002;32;32798;-91
2022/06/08 12:24:13;;;;;;;8.48;4.57;;;;;;;28.11;40.43;99461.41;5520177;32;33838;-89
2022/06/08 12:27:23;;;;;;;5.40;4.47;;;;;;;28.13;40.85;99458.47;5540027;32;33902;-90
2022/06/08 12:30:53;;;;;;;6.47;4.75;;;;;;;28.51;39.96;99449.53;5522305;32;33538;-89
2022/06/08 12:33:56;;;;;;;5.37;4.50;;;;;;;29.33;39.79;99450.69;5530203;32;33781;-90
2022/06/08 12:37:23;;;;;;;5.90;5.32;;;;;;;29.37;38.44;99432.00;5520225;32;33061;-90
2022/06/08 12:40:29;;;;;;;7.28;5.45;;;;;;;29.61;38.28;99425.91;5549495;32;34618;-89
2022/06/08 12:43:35;;;;;;;6.05;5.30;;;;;;;29.10;38.56;99428.63;5522659;32;34385;-88
2022/06/08 12:46:51;;;;;;;6.55;5.87;;;;;;;28.59;39.78;99428.50;5514299;32;32340;-89
2022/06/08 12:50:07;;;;;;;6.12;5.50;;;;;;;28.45;41.27;99423.13;5526223;32;34270;-89
2022/06/08 12:53:10;;;;;;;6.82;5.82;;;;;;;28.77;40.71;99417.69;5518718;32;34230;-93
2022/06/08 12:56:13;;;;;;;8.40;5.50;;;;;;;28.59;42.25;99413.00;5528454;32;33971;-92
2022/06/08 12:59:16;;;;;;;6.75;5.35;;;;;;;28.47;42.28;99412.00;5527067;32;34118;-93
2022/06/08 13:02:27;;;;;;;9.75;6.00;;;;;;;28.76;43.16;99418.75;5504841;32;32435;-90
2022/06/08 13:05:31;;;;;;;;;;;;;;;28.56;44.15;99415.31;5513330;32;34462;-89
2022/06/08 13:08:39;;;;;;;6.57;5.97;;;;;;;28.59;44.41;99409.41;5502206;32;35643;-88
2022/06/08 13:11:44;;;;;;;6.70;5.95;;;;;;;28.54;44.36;99406.50;5514578;32;33314;-89
2022/06/08 13:14:48;;;;;;;6.95;5.82;;;;;;;28.27;44.73;99412.97;5529617;32;34050;-88
2022/06/08 13:17:51;;;;;;;10.57;5.87;;;;;;;28.54;44.90;99404.63;5517412;32;33967;-90
2022/06/08 13:20:57;;;;;;;7.65;6.30;;;;;;;28.88;44.88;99407.16;5502774;32;32581;-89
2022/06/08 13:23:59;;;;;;;12.85;6.28;;;;;;;29.16;44.58;99412.19;5521311;32;32401;-89
2022/06/08 13:27:03;;;;;;;12.05;6.05;;;;;;;29.35;44.60;99422.34;5537391;32;33624;-89
2022/06/08 13:30:07;;;;;;;13.90;5.70;;;;;;;28.28;50.92;99450.06;5543992;32;33689;-88
2022/06/08 13:36:52;;;;;;;7.55;5.65;;;;;;;25.51;71.84;99445.88;5536016;32;33278;-88
2022/06/08 13:39:55;;;;;;;6.57;5.43;;;;;;;25.44;70.49;99443.09;5531305;32;33840;-89
2022/06/08 13:42:58;;;;;;;11.12;5.75;;;;;;;25.15;67.98;99431.41;5526031;32;32474;-87
2022/06/08 13:46:02;;;;;;;8.13;5.45;;;;;;;24.70;75.38;99432.41;5531170;32;32965;-87
2022/06/08 13:49:07;;;;;;;6.78;6.07;;;;;;;24.19;75.86;99427.88;5529145;32;32497;-87
2022/06/08 13:52:15;;;;;;;7.18;6.47;;;;;;;24.15;71.64;99437.37;5537004;32;34596;-88
2022/06/08 13:55:26;;;;;;;6.40;5.80;;;;;;;23.83;72.28;99440.25;5547780;32;34131;-86
2022/06/08 13:58:29;;;;;;;6.37;5.85;;;;;;;23.66;75.86;99464.81;5530588;32;34068;-86
2022/06/08 14:01:33;;;;;;;7.32;6.47;;;;;;;23.22;71.61;99479.03;5521380;32;32693;-86
2022/06/08 14:04:36;;;;;;;9.30;6.47;;;;;;;23.01;74.14;99491.34;5529057;32;32563;-86
2022/06/08 14:14:37;;;;;;;8.68;7.25;;;;;;;22.12;79.96;99544.59;5538959;32;34435;-86
2022/06/08 14:17:43;;;;;;;8.75;7.05;;;;;;;21.36;94.10;99551.03;5544299;32;34021;-86
2022/06/08 14:20:46;;;;;;;7.97;6.95;;;;;;;20.60;98.99;99559.06;5545899;32;34780;-86
2022/06/08 14:23:59;;;;;;;8.32;7.55;;;;;;;20.39;100.00;99562.16;5531628;32;34061;-86
2022/06/08 14:27:03;;;;;;;10.82;7.57;;;;;;;19.96;100.00;99568.28;5538842;32;33622;-86
2022/06/08 14:30:10;;;;;;;11.00;8.52;;;;;;;19.84;100.00;99559.59;5535205;32;34237;-86
2022/06/08 14:33:22;;;;;;;12.45;8.80;;;;;;;19.74;100.00;99554.31;5531016;32;35566;-86
2022/06/08 14:36:27;;;;;;;13.65;9.35;;;;;;;19.70;100.00;99550.25;5532317;32;33803;-86
2022/06/08 14:39:49;;;;;;;13.25;9.65;;;;;;;19.67;100.00;99543.31;5538344;32;34165;-87
2022/06/08 14:42:53;;;;;;;12.18;9.73;;;;;;;19.65;100.00;99539.09;5542475;32;34205;-87
2022/06/08 14:45:57;;;;;;;13.68;9.95;;;;;;;19.60;100.00;99538.72;5537065;32;33895;-86
2022/06/08 14:49:03;;;;;;;14.25;9.85;;;;;;;19.74;100.00;99542.69;5538628;32;33862;-87
2022/06/08 14:52:09;;;;;;;11.43;9.40;;;;;;;19.47;100.00;99534.56;5549532;32;34213;-87
2022/06/08 14:58:37;;;;;;;14.93;9.00;;;;;;;19.36;100.00;99530.28;5540337;32;34404;-87
2022/06/08 15:01:40;;;;;;;11.23;9.25;;;;;;;19.27;100.00;99520.47;5539433;32;34431;-90
2022/06/08 15:04:44;;;;;;;11.05;9.70;;;;;;;19.09;100.00;99507.88;5532456;32;33740;-90
2022/06/08 15:07:48;;;;;;;11.27;10.07;;;;;;;18.89;100.00;99517.88;5530008;32;33910;-90
2022/06/08 15:14:25;;;;;;;10.32;9.30;;;;;;;18.76;100.00;99498.59;5529968;32;33571;-87
2022/06/08 15:17:31;;;;;;;10.90;9.60;;;;;;;19.01;100.00;99488.09;5509179;32;33076;-86
2022/06/08 15:20:34;;;;;;;12.35;10.77;;;;;;;19.06;100.00;99485.84;5511041;32;34896;-86
2022/06/08 15:23:37;;;;;;;10.57;9.48;;;;;;;18.83;100.00;99488.94;5510775;32;34429;-85
2022/06/08 15:26:41;;;;;;;11.10;9.88;;;;;;;18.71;100.00;99481.09;5511033;32;34608;-86
2022/06/08 15:29:43;;;;;;;10.77;9.63;;;;;;;18.70;100.00;99487.47;5509748;32;33216;-86
2022/06/08 15:32:46;;;;;;;9.98;8.90;;;;;;;18.74;100.00;99503.28;5510824;32;34192;-86
2022/06/08 15:36:14;;;;;;;11.05;9.88;;;;;;;18.67;100.00;99503.03;5509444;32;32470;-86
2022/06/08 15:39:20;;;;;;;11.57;10.35;;;;;;;18.87;100.00;99514.50;5510519;32;33518;-86
2022/06/08 15:42:25;;;;;;;11.60;10.25;;;;;;;18.66;100.00;99506.72;5510792;32;33924;-86
2022/06/08 15:45:28;;;;;;;13.57;9.80;;;;;;;18.56;100.00;99515.66;5510652;32;34337;-86
